Time;durP1;ratioP1;P1;durP2;ratioP2;P2;SDS_P1;SDS_P2;PMS_P1;PMS_P2;Temp;Humidity;BMP_temperature;BMP_pressure;BME280_temperature;BME280_humidity;BME280_pressure;Samples;Min_cycle;Max_cycle;Signal;HPM_P1;HPM_P2
2022/09/02 00:00:43;;;;;;;5.25;2.47;;;17.40;46.40;;;;;;5074810;28;20660;-41
2022/09/02 00:03:09;;;;;;;4.80;3.50;;;17.40;46.50;;;;;;5074836;28;20241;-41
2022/09/02 00:05:35;;;;;;;4.00;2.97;;;17.30;46.70;;;;;;5074438;28;20211;-42
2022/09/02 00:08:01;;;;;;;6.13;3.07;;;17.30;47.50;;;;;;5074764;28;20791;-42
2022/09/02 00:10:27;;;;;;;10.40;4.18;;;17.30;46.80;;;;;;5074813;28;20403;-41
2022/09/02 00:12:53;;;;;;;5.43;2.60;;;17.20;46.80;;;;;;5074657;28;20172;-41
2022/09/02 00:15:19;;;;;;;4.33;2.70;;;17.20;46.80;;;;;;5074762;28;20199;-42
2022/09/02 00:17:44;;;;;;;4.00;2.90;;;17.30;47.00;;;;;;5073337;28;20486;-42
2022/09/02 00:20:10;;;;;;;4.47;3.50;;;17.30;46.80;;;;;;5074791;28;20813;-42
2022/09/02 00:22:36;;;;;;;3.37;2.60;;;17.30;46.90;;;;;;5074430;28;20395;-42
2022/09/02 00:25:02;;;;;;;4.20;3.80;;;17.30;47.00;;;;;;5074315;28;20180;-41
2022/09/02 00:27:28;;;;;;;4.43;2.57;;;17.20;46.80;;;;;;5074539;28;20260;-42
2022/09/02 00:29:54;;;;;;;5.23;3.50;;;17.30;46.90;;;;;;5074750;28;20407;-42
2022/09/02 00:32:19;;;;;;;3.10;2.80;;;17.30;46.80;;;;;;5074382;28;20195;-42
2022/09/02 00:34:45;;;;;;;4.30;3.50;;;17.20;46.80;;;;;;5074154;28;20189;-42
2022/09/02 00:37:12;;;;;;;3.20;2.90;;;17.20;46.90;;;;;;5074226;28;20172;-42
2022/09/02 00:39:38;;;;;;;5.25;3.00;;;17.20;46.80;;;;;;5074124;28;20537;-42
2022/09/02 00:42:05;;;;;;;5.20;3.10;;;17.20;46.80;;;;;;5074200;28;20696;-42
2022/09/02 00:44:32;;;;;;;3.53;3.20;;;17.10;46.80;;;;;;5074241;28;20275;-42
2022/09/02 00:46:59;;;;;;;3.53;3.20;;;17.10;46.80;;;;;;5073911;28;20696;-42
2022/09/02 00:49:27;;;;;;;18.52;4.15;;;17.10;46.70;;;;;;5074068;28;20187;-42
2022/09/02 00:52:29;;;;;;;5.40;3.55;;;17.10;46.70;;;;;;5074158;28;20180;-41
2022/09/02 00:54:58;;;;;;;7.38;3.78;;;17.00;46.70;;;;;;5052129;28;20219;-42
2022/09/02 00:57:38;;;;;;;4.10;3.22;;;17.00;46.70;;;;;;5073623;28;20530;-42
2022/09/02 01:00:15;;;;;;;5.18;3.05;;;16.90;46.60;;;;;;5073654;28;20207;-42
2022/09/02 01:02:41;;;;;;;3.58;3.25;;;16.90;46.60;;;;;;5073756;28;20152;-42
2022/09/02 01:05:11;;;;;;;5.73;3.40;;;16.90;46.50;;;;;;5073643;28;20212;-42
2022/09/02 01:07:38;;;;;;;3.78;3.47;;;16.80;46.50;;;;;;5073507;28;20399;-42
2022/09/02 01:10:10;;;;;;;7.40;3.33;;;16.80;46.50;;;;;;5073552;28;20173;-41
2022/09/02 01:12:38;;;;;;;4.25;3.15;;;16.80;46.50;;;;;;5073651;28;20263;-41
2022/09/02 01:15:06;;;;;;;4.65;3.08;;;16.80;46.70;;;;;;5073388;28;20268;-42
2022/09/02 01:17:33;;;;;;;9.70;3.58;;;16.80;46.50;;;;;;5073161;28;20625;-41
2022/09/02 01:20:10;;;;;;;4.18;3.35;;;16.70;46.60;;;;;;5073369;28;20200;-42
2022/09/02 01:22:37;;;;;;;4.35;3.28;;;16.70;46.50;;;;;;5073302;28;20616;-42
2022/09/02 01:25:10;;;;;;;4.00;3.50;;;16.60;46.40;;;;;;5073115;28;20192;-41
2022/09/02 01:27:36;;;;;;;4.05;3.65;;;16.60;46.50;;;;;;5072998;28;20164;-41
2022/09/02 01:30:05;;;;;;;4.40;3.42;;;16.60;46.50;;;;;;5072897;28;20177;-41
2022/09/02 01:32:31;;;;;;;4.03;3.63;;;16.60;46.50;;;;;;5073029;28;20586;-42
2022/09/02 01:34:56;;;;;;;6.50;2.83;;;16.50;46.60;;;;;;5073246;28;20284;-42
2022/09/02 01:37:23;;;;;;;3.93;3.53;;;16.50;46.70;;;;;;5072753;28;20932;-41
2022/09/02 01:39:51;;;;;;;4.70;2.90;;;16.50;46.70;;;;;;5072839;28;20810;-41
2022/09/02 01:42:18;;;;;;;4.22;3.15;;;16.50;46.80;;;;;;5072871;28;20165;-40
2022/09/02 01:44:44;;;;;;;3.40;3.00;;;16.40;46.60;;;;;;5072778;28;20196;-41
2022/09/02 01:47:15;;;;;;;3.97;3.38;;;16.40;46.70;;;;;;5072602;28;20176;-41
2022/09/02 01:49:41;;;;;;;3.83;3.53;;;16.40;46.80;;;;;;5072754;28;20248;-40
2022/09/02 01:52:08;;;;;;;3.60;3.30;;;16.40;46.70;;;;;;5072680;28;20690;-41
2022/09/02 01:54:34;;;;;;;4.43;3.88;;;16.40;46.60;;;;;;5072808;28;20211;-41
2022/09/02 01:57:00;;;;;;;4.35;3.95;;;16.30;46.60;;;;;;5072452;28;20183;-42
2022/09/02 01:59:26;;;;;;;3.65;3.28;;;16.30;46.80;;;;;;5072668;28;20567;-41
2022/09/02 02:01:51;;;;;;;3.83;3.53;;;16.30;46.80;;;;;;5072539;28;20172;-42
2022/09/02 02:04:17;;;;;;;4.40;3.53;;;16.40;46.70;;;;;;5072346;28;20168;-41
2022/09/02 02:06:46;;;;;;;4.20;2.83;;;16.30;46.80;;;;;;5072529;28;20582;-42
2022/09/02 02:09:12;;;;;;;7.32;3.42;;;16.30;46.80;;;;;;5072737;28;20406;-42
2022/09/02 02:11:38;;;;;;;3.70;3.40;;;16.30;46.80;;;;;;5072417;28;20180;-42
2022/09/02 02:14:04;;;;;;;4.10;3.25;;;16.30;46.90;;;;;;5072433;28;20489;-41
2022/09/02 02:16:30;;;;;;;6.25;2.95;;;16.20;46.70;;;;;;5072356;28;20224;-41
2022/09/02 02:18:57;;;;;;;3.43;3.13;;;16.20;46.60;;;;;;5072260;28;20675;-42
2022/09/02 02:21:24;;;;;;;3.10;2.83;;;16.20;46.60;;;;;;5072202;28;20640;-42
2022/09/02 02:23:50;;;;;;;4.90;3.35;;;16.20;46.70;;;;;;5072380;28;20514;-40
2022/09/02 02:26:16;;;;;;;4.80;4.15;;;16.10;46.70;;;;;;5071912;28;20220;-42
2022/09/02 02:28:42;;;;;;;3.33;2.80;;;16.10;46.80;;;;;;5072424;28;20208;-41
2022/09/02 02:31:08;;;;;;;4.63;3.20;;;16.10;46.70;;;;;;5072405;28;20181;-41
2022/09/02 02:33:34;;;;;;;7.23;4.43;;;16.00;46.70;;;;;;5072269;28;20176;-42
2022/09/02 02:36:03;;;;;;;3.78;3.42;;;16.10;46.90;;;;;;5072039;28;20427;-40
2022/09/02 02:38:30;;;;;;;4.55;3.30;;;16.00;46.80;;;;;;5071950;28;20234;-41
2022/09/02 02:40:56;;;;;;;5.20;3.17;;;16.00;46.60;;;;;;5071396;28;20168;-41
2022/09/02 02:43:25;;;;;;;3.65;2.70;;;16.00;46.50;;;;;;5072188;28;20176;-41
2022/09/02 02:45:52;;;;;;;4.47;2.75;;;16.00;46.50;;;;;;5071715;28;20197;-41
2022/09/02 02:48:19;;;;;;;6.60;3.40;;;16.00;46.70;;;;;;5071937;28;20557;-41
2022/09/02 02:50:45;;;;;;;4.53;3.65;;;15.90;46.60;;;;;;5071944;28;20598;-42
2022/09/02 02:53:11;;;;;;;4.53;3.20;;;15.90;46.70;;;;;;5072007;28;20256;-41
2022/09/02 02:55:37;;;;;;;3.78;3.25;;;15.90;46.70;;;;;;5071823;28;20794;-41
2022/09/02 02:58:04;;;;;;;6.88;3.20;;;15.90;46.70;;;;;;5071878;28;20192;-42
2022/09/02 03:00:32;;;;;;;3.83;3.30;;;15.90;46.50;;;;;;5071925;28;20161;-41
2022/09/02 03:03:02;;;;;;;6.80;2.80;;;15.90;46.70;;;;;;5071784;28;20169;-41
2022/09/02 03:05:28;;;;;;;3.58;3.28;;;15.80;46.70;;;;;;5071577;28;20249;-42
2022/09/02 03:07:54;;;;;;;3.33;2.22;;;15.80;46.70;;;;;;5071715;28;20252;-41
2022/09/02 03:10:21;;;;;;;5.07;3.42;;;15.80;46.90;;;;;;5071713;28;20590;-41
2022/09/02 03:12:46;;;;;;;3.58;3.17;;;15.80;46.90;;;;;;5071694;28;20183;-41
2022/09/02 03:15:15;;;;;;;4.60;3.10;;;15.80;46.90;;;;;;5071649;28;20283;-41
2022/09/02 03:17:45;;;;;;;7.97;3.08;;;15.80;46.90;;;;;;5071424;28;20463;-42
2022/09/02 03:20:14;;;;;;;3.20;2.90;;;15.80;47.00;;;;;;5071709;28;20211;-41
2022/09/02 03:22:46;;;;;;;3.05;2.70;;;15.80;47.00;;;;;;5071643;28;20176;-41
2022/09/02 03:25:15;;;;;;;5.60;3.30;;;15.80;47.10;;;;;;5071850;28;20199;-41
2022/09/02 03:27:43;;;;;;;5.13;2.90;;;15.80;47.10;;;;;;5071437;28;20165;-42
2022/09/02 03:30:12;;;;;;;4.15;3.60;;;15.80;47.00;;;;;;5071488;28;20209;-41
2022/09/02 03:32:38;;;;;;;3.55;3.25;;;15.80;46.80;;;;;;5071557;28;20177;-41
2022/09/02 03:35:08;;;;;;;3.45;3.15;;;15.70;46.80;;;;;;5071623;28;20584;-41
2022/09/02 03:37:34;;;;;;;3.83;2.97;;;15.70;46.90;;;;;;5071332;28;20169;-42
2022/09/02 03:40:05;;;;;;;3.25;2.95;;;15.70;46.80;;;;;;5071369;28;20205;-42
2022/09/02 03:42:31;;;;;;;3.45;2.50;;;15.70;46.90;;;;;;5071359;28;20176;-41
2022/09/02 03:44:57;;;;;;;4.07;3.30;;;15.70;47.10;;;;;;5071556;28;20197;-42
2022/09/02 03:47:23;;;;;;;4.60;3.93;;;15.70;47.20;;;;;;5071206;28;20161;-42
2022/09/02 03:49:49;;;;;;;7.30;3.22;;;15.70;47.30;;;;;;5071327;28;20961;-41
2022/09/02 03:52:15;;;;;;;4.82;3.70;;;15.70;47.20;;;;;;5073360;28;20239;-41
2022/09/02 03:54:41;;;;;;;5.93;3.30;;;15.70;47.30;;;;;;5075260;28;20196;-41
2022/09/02 03:57:07;;;;;;;4.25;3.20;;;15.70;47.20;;;;;;5074704;28;20173;-41
2022/09/02 03:59:33;;;;;;;3.50;2.97;;;15.70;47.20;;;;;;5074876;28;20729;-41
2022/09/02 04:02:01;;;;;;;4.88;3.10;;;15.70;47.10;;;;;;5074852;28;20414;-41
2022/09/02 04:04:28;;;;;;;3.78;3.03;;;15.60;47.00;;;;;;5074749;28;20173;-41
2022/09/02 04:06:54;;;;;;;3.58;2.65;;;15.60;47.10;;;;;;5074582;28;20688;-41
2022/09/02 04:09:21;;;;;;;3.30;2.90;;;15.60;47.10;;;;;;5074676;28;20255;-41
2022/09/02 04:11:46;;;;;;;3.70;3.40;;;15.50;47.10;;;;;;5074709;28;20187;-41
2022/09/02 04:14:12;;;;;;;4.67;2.70;;;15.50;47.20;;;;;;5074833;28;20180;-41
2022/09/02 04:16:38;;;;;;;3.70;3.30;;;15.50;47.10;;;;;;5075201;28;20161;-41
2022/09/02 04:19:04;;;;;;;4.23;3.27;;;15.50;47.00;;;;;;5074897;28;20450;-41
2022/09/02 04:21:36;;;;;;;4.95;2.72;;;15.50;47.00;;;;;;5074753;28;20795;-41
2022/09/02 04:24:02;;;;;;;8.20;3.42;;;15.50;47.00;;;;;;5074642;28;20165;-41
2022/09/02 04:26:28;;;;;;;5.85;3.17;;;15.50;47.10;;;;;;5074321;28;20195;-41
2022/09/02 04:28:54;;;;;;;4.10;3.17;;;15.40;47.00;;;;;;5056449;28;20177;-41
2022/09/02 04:31:24;;;;;;;5.67;3.50;;;15.40;47.10;;;;;;5074348;28;20500;-42
2022/09/02 04:33:51;;;;;;;5.38;3.60;;;15.40;47.10;;;;;;5074783;28;20411;-42
2022/09/02 04:36:18;;;;;;;5.15;3.50;;;15.40;47.20;;;;;;5073965;28;20246;-42
2022/09/02 04:38:45;;;;;;;3.33;2.95;;;15.40;47.30;;;;;;5074018;28;20196;-41
2022/09/02 04:41:15;;;;;;;4.43;2.95;;;15.40;47.30;;;;;;5074088;28;20172;-41
2022/09/02 04:43:41;;;;;;;4.05;3.60;;;15.50;47.50;;;;;;5074434;28;20187;-41
2022/09/02 04:46:11;;;;;;;3.28;2.97;;;15.40;47.30;;;;;;5073995;28;20291;-41
2022/09/02 04:48:38;;;;;;;4.15;3.15;;;15.40;47.50;;;;;;5073838;28;20164;-42
2022/09/02 04:51:15;;;;;;;5.38;2.97;;;15.50;48.00;;;;;;5074171;28;20188;-42
2022/09/02 04:53:42;;;;;;;5.95;3.25;;;15.50;47.80;;;;;;5073904;28;20210;-42
2022/09/02 04:56:11;;;;;;;3.97;3.30;;;15.40;47.80;;;;;;5073710;28;20196;-41
2022/09/02 04:58:37;;;;;;;6.75;3.10;;;15.50;48.00;;;;;;5073847;28;20192;-41
2022/09/02 05:01:14;;;;;;;5.00;3.67;;;15.50;48.20;;;;;;5073738;28;20165;-41
2022/09/02 05:03:41;;;;;;;4.18;3.05;;;15.60;48.30;;;;;;5073050;28;20169;-41
2022/09/02 05:06:09;;;;;;;6.35;3.50;;;15.60;48.30;;;;;;5055210;28;20212;-42
2022/09/02 05:08:35;;;;;;;3.83;2.88;;;15.60;48.40;;;;;;5073541;28;20297;-41
2022/09/02 05:11:05;;;;;;;7.43;3.40;;;15.70;48.60;;;;;;5073534;28;20691;-41
2022/09/02 05:13:31;;;;;;;7.68;3.80;;;15.80;48.60;;;;;;5073439;28;20903;-41
2022/09/02 05:15:57;;;;;;;6.33;3.37;;;15.80;48.60;;;;;;5073041;28;20200;-41
2022/09/02 05:18:23;;;;;;;4.20;3.57;;;15.90;48.80;;;;;;5073195;28;20244;-41
2022/09/02 05:20:48;;;;;;;4.10;3.70;;;16.00;48.80;;;;;;5073165;28;20225;-42
2022/09/02 05:23:14;;;;;;;4.93;4.00;;;16.00;48.80;;;;;;5073333;28;20411;-41
2022/09/02 05:25:41;;;;;;;7.90;3.60;;;16.10;48.90;;;;;;5072858;28;20196;-41
2022/09/02 05:28:10;;;;;;;4.57;3.75;;;16.20;48.90;;;;;;5055232;28;20185;-41
2022/09/02 05:30:38;;;;;;;7.68;3.85;;;16.20;48.90;;;;;;5073344;28;20325;-41
2022/09/02 05:33:04;;;;;;;5.88;4.25;;;16.30;49.70;;;;;;5072948;28;20247;-41
2022/09/02 05:35:30;;;;;;;4.53;4.13;;;16.40;49.00;;;;;;5073205;28;20200;-41
2022/09/02 05:37:56;;;;;;;4.57;4.17;;;16.40;49.00;;;;;;5073202;28;20184;-42
2022/09/02 05:40:22;;;;;;;6.93;4.45;;;16.50;49.00;;;;;;5072796;28;20455;-41
2022/09/02 05:42:48;;;;;;;4.43;4.03;;;16.60;48.90;;;;;;5072896;28;20227;-42
2022/09/02 05:45:14;;;;;;;8.40;4.33;;;16.70;49.00;;;;;;5072870;28;20188;-42
2022/09/02 05:47:40;;;;;;;4.57;3.70;;;16.80;49.00;;;;;;5072521;28;20214;-41
2022/09/02 05:50:06;;;;;;;12.43;4.63;;;16.90;49.00;;;;;;5072748;28;20187;-41
2022/09/02 05:52:32;;;;;;;5.55;3.70;;;17.00;48.90;;;;;;5072813;28;20164;-42
2022/09/02 05:54:59;;;;;;;3.90;3.50;;;17.00;48.80;;;;;;5072770;28;20265;-42
2022/09/02 05:57:25;;;;;;;6.75;4.47;;;17.10;48.90;;;;;;5072280;28;20601;-41
2022/09/02 05:59:55;;;;;;;8.50;3.55;;;17.20;48.80;;;;;;5072748;28;20211;-42
2022/09/02 06:02:23;;;;;;;4.22;3.53;;;17.30;48.80;;;;;;5072353;28;20258;-42
2022/09/02 06:04:51;;;;;;;4.40;4.00;;;17.30;48.80;;;;;;5072294;28;20660;-41
2022/09/02 06:07:19;;;;;;;4.40;3.20;;;17.40;48.70;;;;;;5072319;28;20540;-42
2022/09/02 06:09:45;;;;;;;5.10;4.05;;;17.50;48.60;;;;;;5072485;28;20183;-41
2022/09/02 06:12:14;;;;;;;8.60;4.22;;;17.60;48.60;;;;;;5054419;28;20263;-41
2022/09/02 06:14:40;;;;;;;3.60;3.20;;;17.70;48.60;;;;;;5071647;28;20257;-42
2022/09/02 06:17:06;;;;;;;4.75;4.28;;;17.80;48.50;;;;;;5071906;28;20656;-42
2022/09/02 06:19:33;;;;;;;4.35;3.70;;;17.90;48.50;;;;;;5072484;28;20200;-41
2022/09/02 06:22:01;;;;;;;4.85;3.75;;;18.00;48.30;;;;;;5072268;28;20754;-42
2022/09/02 06:24:27;;;;;;;3.40;3.10;;;18.00;48.20;;;;;;5072147;28;20188;-42
2022/09/02 06:26:54;;;;;;;3.75;3.45;;;18.10;48.20;;;;;;5072232;28;20168;-42
2022/09/02 06:29:21;;;;;;;5.78;3.72;;;18.20;48.10;;;;;;5072076;28;20172;-41
2022/09/02 06:31:48;;;;;;;7.00;4.07;;;18.20;48.00;;;;;;5072316;28;20230;-41
2022/09/02 06:34:17;;;;;;;7.38;4.70;;;18.30;48.00;;;;;;5071966;28;20226;-42
2022/09/02 06:36:45;;;;;;;5.25;4.75;;;18.30;47.90;;;;;;5071953;28;20172;-42
2022/09/02 06:39:14;;;;;;;4.38;3.97;;;18.30;47.80;;;;;;5071952;28;20651;-42
2022/09/02 06:41:42;;;;;;;4.97;3.55;;;18.30;48.00;;;;;;5072244;28;20529;-41
2022/09/02 06:44:09;;;;;;;5.07;4.57;;;18.40;48.20;;;;;;5072119;28;20164;-42
2022/09/02 06:46:42;;;;;;;9.10;3.50;;;18.60;48.20;;;;;;5071539;28;20644;-42
2022/09/02 06:49:09;;;;;;;3.63;3.05;;;18.70;48.40;;;;;;5072150;28;20185;-42
2022/09/02 06:51:38;;;;;;;4.60;3.90;;;18.80;48.40;;;;;;5071961;28;20172;-41
2022/09/02 06:54:06;;;;;;;4.65;4.25;;;19.00;48.10;;;;;;5071901;28;20181;-42
2022/09/02 06:56:33;;;;;;;4.10;3.38;;;19.10;47.90;;;;;;5071583;28;20216;-42
2022/09/02 06:59:00;;;;;;;4.05;3.25;;;19.30;47.70;;;;;;5071747;28;20215;-42
2022/09/02 07:01:28;;;;;;;5.35;3.25;;;19.40;47.10;;;;;;5071843;28;20161;-42
2022/09/02 07:06:43;;;;;;;5.93;4.30;;;19.50;47.40;;;;;;5071628;28;20184;-42
2022/09/02 07:09:11;;;;;;;5.63;3.30;;;19.60;47.30;;;;;;5071830;28;20180;-42
2022/09/02 07:11:37;;;;;;;5.38;3.25;;;19.70;46.60;;;;;;5071687;28;20176;-42
2022/09/02 07:14:04;;;;;;;5.25;3.22;;;19.70;46.80;;;;;;5071624;28;20255;-42
2022/09/02 07:16:34;;;;;;;2.63;2.40;;;19.80;46.40;;;;;;5071389;28;20624;-42
2022/09/02 07:19:01;;;;;;;3.65;2.70;;;19.90;46.20;;;;;;5071618;28;20295;-42
2022/09/02 07:21:29;;;;;;;2.92;2.60;;;20.00;46.00;;;;;;5071691;28;20693;-41
2022/09/02 07:23:58;;;;;;;2.75;2.30;;;20.00;45.20;;;;;;5071796;28;20176;-42
2022/09/02 07:26:25;;;;;;;4.03;2.60;;;20.20;46.00;;;;;;5072482;28;20238;-41
2022/09/02 07:28:51;;;;;;;4.90;2.70;;;20.30;46.00;;;;;;5075516;28;20184;-41
2022/09/02 07:31:18;;;;;;;3.40;2.75;;;20.40;45.80;;;;;;5075469;28;20172;-42
2022/09/02 07:33:44;;;;;;;3.53;2.75;;;20.60;45.60;;;;;;5075280;28;20591;-42
2022/09/02 07:36:12;;;;;;;2.70;2.20;;;20.70;44.00;;;;;;5075292;28;20200;-42
2022/09/02 07:38:40;;;;;;;4.18;3.00;;;20.70;43.60;;;;;;5075347;28;20192;-42
2022/09/02 07:41:07;;;;;;;3.67;2.75;;;20.80;44.00;;;;;;5075412;28;20312;-42
2022/09/02 07:43:34;;;;;;;3.83;2.47;;;20.80;44.50;;;;;;5075166;28;20173;-42
2022/09/02 07:46:01;;;;;;;2.80;2.55;;;20.90;44.40;;;;;;5074866;28;20195;-42
2022/09/02 07:48:28;;;;;;;2.63;2.40;;;21.00;44.50;;;;;;5075108;28;20176;-42
2022/09/02 07:50:55;;;;;;;6.17;2.43;;;21.20;44.40;;;;;;5075114;28;20169;-42
2022/09/02 07:53:21;;;;;;;3.80;2.00;;;21.30;44.10;;;;;;5075202;28;20762;-43
2022/09/02 07:55:47;;;;;;;4.40;2.27;;;21.40;43.80;;;;;;5074674;28;20184;-42
2022/09/02 07:58:15;;;;;;;2.40;1.70;;;21.50;43.30;;;;;;5074935;28;20442;-43
2022/09/02 08:00:42;;;;;;;2.05;1.80;;;21.60;42.10;;;;;;5074894;28;20177;-43
2022/09/02 08:03:10;;;;;;;1.80;1.30;;;21.70;41.10;;;;;;5074966;28;20252;-43
2022/09/02 08:05:36;;;;;;;6.20;3.00;;;21.60;40.10;;;;;;5074487;28;20450;-43
2022/09/02 08:08:03;;;;;;;2.40;2.00;;;21.70;40.80;;;;;;5074783;28;20394;-42
2022/09/02 08:10:29;;;;;;;3.30;1.90;;;21.80;41.40;;;;;;5074704;28;20207;-43
2022/09/02 08:12:56;;;;;;;2.60;1.77;;;21.90;41.40;;;;;;5074773;28;20407;-43
2022/09/02 08:15:23;;;;;;;2.27;1.90;;;22.00;41.90;;;;;;5074521;28;20430;-42
2022/09/02 08:17:49;;;;;;;6.30;2.50;;;22.10;41.90;;;;;;5074748;28;20751;-42
2022/09/02 08:20:16;;;;;;;2.58;1.42;;;22.20;41.20;;;;;;5074456;28;20200;-42
2022/09/02 08:22:42;;;;;;;4.10;1.98;;;22.40;40.80;;;;;;5074582;28;20173;-42
2022/09/02 08:25:09;;;;;;;1.90;1.33;;;22.30;39.50;;;;;;5074485;28;20218;-42
2022/09/02 08:27:36;;;;;;;3.40;2.20;;;22.40;39.80;;;;;;5056194;28;20589;-43
2022/09/02 08:30:04;;;;;;;2.03;1.00;;;22.50;39.00;;;;;;5074355;28;20411;-43
2022/09/02 08:32:31;;;;;;;1.88;1.33;;;22.60;38.60;;;;;;5074366;28;20407;-43
2022/09/02 08:35:01;;;;;;;3.57;1.20;;;22.60;37.80;;;;;;5074188;28;20215;-42
2022/09/02 08:37:28;;;;;;;2.70;1.17;;;22.70;38.70;;;;;;5073700;28;20414;-42
2022/09/02 08:39:54;;;;;;;3.47;2.00;;;22.80;38.50;;;;;;5073844;28;20447;-42
2022/09/02 08:42:37;;;;;;;2.40;1.83;;;22.90;38.60;;;;;;5074068;28;20904;-43
2022/09/02 08:45:13;;;;;;;2.50;0.93;;;23.00;38.50;;;;;;5074069;28;20191;-42
2022/09/02 08:47:42;;;;;;;2.23;1.17;;;23.10;37.60;;;;;;5073942;28;20405;-42
2022/09/02 08:50:17;;;;;;;1.90;1.20;;;23.20;37.10;;;;;;5073954;28;20552;-43
2022/09/02 08:52:52;;;;;;;1.70;1.10;;;23.20;35.80;;;;;;5074074;28;20471;-42
2022/09/02 08:55:24;;;;;;;3.20;1.03;;;23.20;34.50;;;;;;5073726;28;20418;-42
2022/09/02 08:57:50;;;;;;;2.57;0.87;;;23.20;33.90;;;;;;5073696;28;20489;-42
2022/09/02 09:00:16;;;;;;;2.40;1.30;;;23.30;35.40;;;;;;5073817;28;20545;-43
2022/09/02 09:03:09;;;;;;;1.97;1.30;;;23.40;35.70;;;;;;5073872;28;20400;-42
2022/09/02 09:05:52;;;;;;;1.80;1.43;;;23.50;36.30;;;;;;5073200;28;20480;-42
2022/09/02 09:08:42;;;;;;;2.07;1.27;;;23.60;34.50;;;;;;5073755;28;20395;-43
2022/09/02 09:11:22;;;;;;;1.70;0.90;;;23.60;35.10;;;;;;5073840;28;20379;-42
2022/09/02 09:14:23;;;;;;;1.30;1.00;;;23.60;34.30;;;;;;5073535;28;20398;-42
2022/09/02 09:16:57;;;;;;;1.80;1.13;;;23.80;35.10;;;;;;5034579;28;20775;-42
2022/09/02 09:19:46;;;;;;;1.73;0.97;;;23.90;34.80;;;;;;5073301;28;20495;-43
2022/09/02 09:22:16;;;;;;;3.27;0.97;;;24.00;34.80;;;;;;5073328;28;20402;-43
2022/09/02 09:24:45;;;;;;;1.60;0.90;;;24.20;34.80;;;;;;5073208;28;20427;-48
2022/09/02 09:27:14;;;;;;;2.63;1.10;;;24.10;32.60;;;;;;5073034;28;20408;-43
2022/09/02 09:29:40;;;;;;;1.60;1.10;;;24.10;32.80;;;;;;5073237;28;20413;-42
2022/09/02 09:32:20;;;;;;;2.10;0.90;;;24.20;33.30;;;;;;5073293;28;20414;-43
2022/09/02 09:34:51;;;;;;;1.40;0.70;;;24.20;30.00;;;;;;5073152;28;20445;-43
2022/09/02 09:37:51;;;;;;;1.33;0.93;;;24.20;32.50;;;;;;5073133;28;20430;-42
2022/09/02 09:40:16;;;;;;;4.47;0.93;;;24.20;29.70;;;;;;5054399;28;20977;-43
2022/09/02 09:42:44;;;;;;;2.07;1.20;;;24.20;32.20;;;;;;5072828;28;20414;-43
2022/09/02 09:45:32;;;;;;;1.50;0.70;;;24.30;30.70;;;;;;5072608;28;20195;-43
2022/09/02 09:48:12;;;;;;;2.03;1.07;;;24.40;31.20;;;;;;5054798;28;20480;-43
2022/09/02 09:50:38;;;;;;;2.27;0.73;;;24.60;32.60;;;;;;5072579;28;20456;-42
2022/09/02 09:53:24;;;;;;;2.03;0.70;;;24.70;32.30;;;;;;5072882;28;20406;-43
2022/09/02 09:55:53;;;;;;;1.63;0.80;;;24.90;32.00;;;;;;5072314;28;20192;-43
2022/09/02 09:58:21;;;;;;;2.23;1.43;;;24.80;31.40;;;;;;5072541;28;20456;-43
2022/09/02 10:00:47;;;;;;;1.30;0.90;;;24.80;31.30;;;;;;5072678;28;20464;-42
2022/09/02 10:03:29;;;;;;;2.03;1.00;;;24.70;30.80;;;;;;5072557;28;21084;-43
2022/09/02 10:05:57;;;;;;;1.50;1.13;;;24.70;31.40;;;;;;5072081;28;20442;-43
2022/09/02 10:08:26;;;;;;;7.63;1.40;;;24.60;31.50;;;;;;5072495;28;20399;-43
2022/09/02 10:11:00;;;;;;;1.40;1.00;;;24.40;31.60;;;;;;5072381;28;20404;-43
2022/09/02 10:13:32;;;;;;;1.53;1.10;;;24.40;32.30;;;;;;5072510;28;20402;-43
2022/09/02 10:16:19;;;;;;;2.63;1.00;;;24.40;33.00;;;;;;5072406;28;20919;-43
2022/09/02 10:18:55;;;;;;;2.90;1.20;;;24.40;32.60;;;;;;5072589;28;20447;-42
2022/09/02 10:21:55;;;;;;;3.70;1.00;;;24.40;31.60;;;;;;5072450;28;20814;-42
2022/09/02 10:24:43;;;;;;;2.10;0.80;;;24.40;31.00;;;;;;5072084;28;20402;-43
2022/09/02 10:27:15;;;;;;;2.07;0.80;;;24.30;32.00;;;;;;5071890;28;20927;-43
2022/09/02 10:30:10;;;;;;;1.30;0.77;;;24.30;32.40;;;;;;5072419;28;20905;-42
2022/09/02 10:32:54;;;;;;;2.67;1.07;;;24.20;32.30;;;;;;5072210;28;20388;-42
2022/09/02 10:35:46;;;;;;;2.10;1.10;;;24.20;32.60;;;;;;5072095;28;20418;-43
2022/09/02 10:38:38;;;;;;;2.40;1.07;;;24.20;32.60;;;;;;5072255;28;20403;-42
2022/09/02 10:41:25;;;;;;;1.60;1.00;;;24.20;32.50;;;;;;5072242;28;20391;-43
2022/09/02 10:43:56;;;;;;;2.23;0.90;;;24.20;32.50;;;;;;5072062;28;20914;-43
2022/09/02 10:46:24;;;;;;;1.70;0.63;;;24.20;32.90;;;;;;5071747;28;20445;-43
2022/09/02 10:49:09;;;;;;;3.33;1.20;;;24.20;33.30;;;;;;5071976;28;20414;-43
2022/09/02 10:51:56;;;;;;;1.70;0.83;;;24.30;33.20;;;;;;5071990;28;20395;-42
2022/09/02 10:54:41;;;;;;;1.30;0.70;;;24.30;33.30;;;;;;5071884;28;20410;-43
2022/09/02 10:57:25;;;;;;;1.67;1.13;;;24.30;33.30;;;;;;5071750;28;20378;-43
2022/09/02 11:00:00;;;;;;;2.50;0.80;;;24.30;32.90;;;;;;5071825;28;20438;-43
2022/09/02 11:02:44;;;;;;;4.67;1.80;;;24.20;32.40;;;;;;5074475;28;20382;-43
2022/09/02 11:05:47;;;;;;;1.67;0.80;;;24.30;33.10;;;;;;5057816;28;20450;-43
2022/09/02 11:08:24;;;;;;;1.67;1.50;;;24.20;33.30;;;;;;5075426;28;20411;-43
2022/09/02 11:10:59;;;;;;;1.50;1.03;;;24.30;33.30;;;;;;5076017;28;20453;-42
2022/09/02 11:13:31;;;;;;;2.23;1.07;;;24.30;33.30;;;;;;5075773;28;20900;-43
2022/09/02 11:16:14;;;;;;;1.60;1.00;;;24.40;33.50;;;;;;5075493;28;20896;-43
2022/09/02 11:18:58;;;;;;;1.53;0.90;;;24.40;33.40;;;;;;5075654;28;20383;-43
2022/09/02 11:21:28;;;;;;;1.97;1.30;;;24.50;33.20;;;;;;5075594;28;20398;-43
2022/09/02 11:24:03;;;;;;;2.80;1.63;;;24.50;33.60;;;;;;5075599;28;20391;-43
2022/09/02 11:26:55;;;;;;;1.80;0.83;;;24.70;33.40;;;;;;5075391;28;21168;-43
2022/09/02 11:29:26;;;;;;;1.50;1.00;;;24.80;33.30;;;;;;5075494;28;20394;-43
2022/09/02 11:32:09;;;;;;;1.57;0.90;;;25.00;32.50;;;;;;5075543;28;20398;-44
2022/09/02 11:34:48;;;;;;;3.40;1.20;;;25.20;32.80;;;;;;5075357;28;20510;-43
2022/09/02 11:37:32;;;;;;;2.20;0.90;;;25.40;32.30;;;;;;5075471;28;20422;-43
2022/09/02 11:40:06;;;;;;;2.33;1.03;;;25.40;31.80;;;;;;5075131;28;20452;-42
2022/09/02 11:43:01;;;;;;;1.67;0.80;;;25.30;31.60;;;;;;5075446;28;20493;-43
2022/09/02 11:46:04;;;;;;;1.93;1.00;;;25.20;31.10;;;;;;5075127;28;20501;-43
2022/09/02 11:48:49;;;;;;;1.50;0.80;;;25.00;31.40;;;;;;5075168;28;20889;-42
2022/09/02 11:51:30;;;;;;;1.50;0.93;;;24.90;31.90;;;;;;5075288;28;20678;-43
2022/09/02 11:53:59;;;;;;;1.57;0.77;;;24.80;32.20;;;;;;5075086;28;20390;-43
2022/09/02 11:56:47;;;;;;;4.33;1.37;;;24.70;31.80;;;;;;5074997;28;20972;-44
2022/09/02 11:59:43;;;;;;;3.13;0.70;;;24.70;31.80;;;;;;5074941;28;21036;-44
2022/09/02 12:02:11;;;;;;;1.40;0.90;;;24.60;31.80;;;;;;5074898;28;20411;-43
2022/09/02 12:04:36;;;;;;;1.90;1.00;;;24.50;32.20;;;;;;5074649;28;20443;-43
2022/09/02 12:07:05;;;;;;;4.80;1.60;;;24.60;32.50;;;;;;5074654;28;20375;-43
2022/09/02 12:09:54;;;;;;;1.67;0.80;;;24.60;32.50;;;;;;5074637;28;20173;-43
2022/09/02 12:12:35;;;;;;;4.23;1.13;;;24.60;31.90;;;;;;5074126;28;20419;-44
2022/09/02 12:15:06;;;;;;;2.67;1.03;;;24.60;31.40;;;;;;5074037;28;20426;-43
2022/09/02 12:17:45;;;;;;;5.90;1.20;;;24.50;31.60;;;;;;5074724;28;20384;-44
2022/09/02 12:20:37;;;;;;;5.60;1.27;;;24.50;31.00;;;;;;5074517;28;20981;-44
2022/09/02 12:23:04;;;;;;;1.60;0.73;;;24.50;30.60;;;;;;5074673;28;20411;-43
2022/09/02 12:25:32;;;;;;;3.90;1.00;;;24.50;30.70;;;;;;5074238;28;20429;-43
2022/09/02 12:28:25;;;;;;;1.20;0.70;;;24.60;30.30;;;;;;5074425;28;20403;-44
2022/09/02 12:31:00;;;;;;;1.50;0.80;;;24.70;29.30;;;;;;5074879;28;20395;-44
2022/09/02 12:34:02;;;;;;;1.60;0.80;;;24.80;30.10;;;;;;5074498;28;20432;-43
2022/09/02 12:36:40;;;;;;;1.70;1.00;;;25.00;29.70;;;;;;5021375;28;20432;-43
2022/09/02 12:39:26;;;;;;;1.60;1.00;;;25.20;29.80;;;;;;5073992;28;20986;-43
2022/09/02 12:42:09;;;;;;;8.60;1.70;;;25.20;28.30;;;;;;5056194;28;20941;-42
2022/09/02 12:45:06;;;;;;;7.87;1.57;;;25.10;28.30;;;;;;5074060;28;20434;-44
2022/09/02 12:47:58;;;;;;;2.07;1.03;;;25.00;29.20;;;;;;5073922;28;20406;-43
2022/09/02 12:50:56;;;;;;;2.23;1.07;;;24.90;29.70;;;;;;5073988;28;20414;-44
2022/09/02 12:53:47;;;;;;;5.50;1.10;;;24.80;29.20;;;;;;5073975;28;20407;-44
2022/09/02 12:56:22;;;;;;;3.60;1.00;;;24.70;29.20;;;;;;5073669;28;20419;-44
2022/09/02 12:58:52;;;;;;;5.00;1.40;;;24.60;29.80;;;;;;5073696;28;20438;-44
2022/09/02 13:01:42;;;;;;;1.50;1.00;;;24.70;30.10;;;;;;5073942;28;20383;-44
2022/09/02 13:04:37;;;;;;;2.10;1.10;;;24.70;30.30;;;;;;5055790;28;20399;-43
2022/09/02 13:07:20;;;;;;;2.70;0.87;;;24.80;30.00;;;;;;4984676;28;20467;-43
2022/09/02 13:10:27;;;;;;;1.90;1.03;;;24.80;29.10;;;;;;5073871;28;20398;-44